Time;durP1;ratioP1;P1;durP2;ratioP2;P2;SDS_P1;SDS_P2;PMS_P1;PMS_P2;Temp;Humidity;BMP_temperature;BMP_pressure;BME280_temperature;BME280_humidity;BME280_pressure;Samples;Min_cycle;Max_cycle;Signal;HPM_P1;HPM_P2
2021/03/27 00:00:43;;;;;;;47.22;27.00;;;10.30;99.90;;;;;;4902836;29;20466;-70
2021/03/27 00:03:19;;;;;;;43.50;25.40;;;10.30;99.90;;;;;;4903368;29;20191;-70
2021/03/27 00:05:52;;;;;;;39.47;26.40;;;10.30;99.90;;;;;;4902387;29;20482;-71
2021/03/27 00:08:25;;;;;;;41.10;25.73;;;10.30;99.90;;;;;;4902794;29;20415;-69
2021/03/27 00:10:58;;;;;;;41.88;26.23;;;10.30;99.90;;;;;;4902459;29;20455;-69
2021/03/27 00:13:31;;;;;;;43.95;26.98;;;10.30;99.90;;;;;;4901861;29;20309;-70
2021/03/27 00:16:04;;;;;;;40.27;24.00;;;10.20;99.90;;;;;;4901376;29;20206;-70
2021/03/27 00:18:42;;;;;;;41.65;24.05;;;10.20;99.90;;;;;;4902147;29;20423;-72
2021/03/27 00:21:15;;;;;;;37.85;25.55;;;10.10;99.90;;;;;;4902342;29;20198;-71
2021/03/27 00:23:51;;;;;;;43.20;27.98;;;10.00;99.90;;;;;;4903268;29;20656;-71
2021/03/27 00:26:26;;;;;;;39.17;26.42;;;10.00;99.90;;;;;;4900632;29;20228;-71
2021/03/27 00:28:58;;;;;;;46.25;28.42;;;10.00;99.90;;;;;;4899469;29;20186;-69
2021/03/27 00:31:29;;;;;;;40.63;24.67;;;10.00;99.90;;;;;;4899445;29;20189;-70
2021/03/27 00:34:00;;;;;;;41.22;25.50;;;10.10;99.90;;;;;;4899271;29;20178;-70
2021/03/27 00:36:35;;;;;;;47.15;27.90;;;10.10;99.90;;;;;;4899133;29;20310;-71
2021/03/27 00:39:06;;;;;;;36.38;22.70;;;10.00;99.90;;;;;;4899094;29;20193;-71
2021/03/27 00:41:37;;;;;;;40.55;24.55;;;10.00;99.90;;;;;;4899109;29;20205;-70
2021/03/27 00:44:10;;;;;;;45.15;28.15;;;10.00;99.90;;;;;;4899118;29;20646;-70
2021/03/27 00:46:39;;;;;;;41.53;23.93;;;9.90;99.90;;;;;;4898794;29;20241;-69
2021/03/27 00:49:11;;;;;;;38.78;25.15;;;9.80;99.90;;;;;;4913489;29;20477;-70
2021/03/27 00:51:42;;;;;;;48.03;29.08;;;9.90;99.90;;;;;;4899095;29;20202;-71
2021/03/27 00:54:20;;;;;;;42.08;26.92;;;9.90;99.90;;;;;;4882143;29;20204;-69
2021/03/27 00:56:59;;;;;;;39.72;25.42;;;9.90;99.90;;;;;;4882795;29;20249;-70
2021/03/27 00:59:29;;;;;;;40.15;25.00;;;9.90;99.90;;;;;;4913205;29;20248;-70
2021/03/27 01:02:12;;;;;;;38.10;26.08;;;9.90;99.90;;;;;;4913226;29;20198;-70
2021/03/27 01:05:03;;;;;;;32.50;22.65;;;9.90;99.90;;;;;;4898751;29;20278;-70
2021/03/27 01:07:50;;;;;;;34.88;23.45;;;9.90;99.90;;;;;;4898609;29;20221;-71
2021/03/27 01:10:40;;;;;;;38.05;23.73;;;10.00;99.90;;;;;;4898590;29;20322;-69
2021/03/27 01:13:38;;;;;;;39.50;24.75;;;10.00;99.90;;;;;;4881762;29;20213;-70
2021/03/27 01:16:08;;;;;;;29.67;22.25;;;10.00;99.90;;;;;;4898319;29;20229;-71
2021/03/27 01:18:42;;;;;;;35.33;23.00;;;9.90;99.90;;;;;;4912950;29;20190;-69
2021/03/27 01:21:15;;;;;;;41.47;24.33;;;10.00;99.90;;;;;;4898659;29;20198;-69
2021/03/27 01:23:43;;;;;;;39.55;27.85;;;10.00;99.90;;;;;;4913446;29;20198;-70
2021/03/27 01:26:17;;;;;;;47.05;23.83;;;10.10;99.90;;;;;;4881617;29;20312;-71
2021/03/27 01:28:50;;;;;;;42.67;24.48;;;10.00;99.90;;;;;;4898676;29;20178;-70
2021/03/27 01:31:24;;;;;;;37.92;22.13;;;10.00;99.90;;;;;;4898292;29;20186;-72
2021/03/27 01:33:59;;;;;;;37.90;23.33;;;10.00;99.90;;;;;;4898190;29;20193;-70
2021/03/27 01:36:37;;;;;;;31.77;22.90;;;10.00;99.90;;;;;;4896649;29;20701;-70
2021/03/27 01:39:11;;;;;;;31.83;21.55;;;9.80;99.90;;;;;;4897900;29;20548;-70
2021/03/27 01:41:51;;;;;;;40.28;24.67;;;9.70;99.90;;;;;;4898110;29;20267;-71
2021/03/27 01:44:33;;;;;;;44.53;24.92;;;9.70;99.90;;;;;;4898110;29;20188;-70
2021/03/27 01:47:10;;;;;;;31.77;21.75;;;9.70;99.90;;;;;;4897808;29;20248;-70
2021/03/27 01:49:49;;;;;;;39.20;26.75;;;9.80;99.90;;;;;;4898114;29;20234;-71
2021/03/27 01:52:46;;;;;;;31.60;21.98;;;9.90;99.90;;;;;;4898152;29;20645;-72
2021/03/27 01:55:27;;;;;;;33.25;20.55;;;9.90;99.90;;;;;;4897633;29;20221;-70
2021/03/27 01:58:00;;;;;;;33.35;21.23;;;9.90;99.90;;;;;;4898172;29;20676;-70
2021/03/27 02:00:31;;;;;;;36.25;20.92;;;9.70;99.90;;;;;;4897883;29;20205;-70
2021/03/27 02:03:06;;;;;;;33.08;20.40;;;9.60;99.90;;;;;;4897936;29;20182;-70
2021/03/27 02:05:36;;;;;;;34.00;21.60;;;9.40;99.90;;;;;;4897459;29;20237;-70
2021/03/27 02:08:11;;;;;;;33.22;22.75;;;9.40;99.90;;;;;;4897686;29;20182;-70
2021/03/27 02:10:44;;;;;;;34.45;21.17;;;9.50;99.90;;;;;;4897991;29;20261;-71
2021/03/27 02:13:22;;;;;;;40.72;22.10;;;9.50;99.90;;;;;;4898011;29;20187;-71
2021/03/27 02:15:59;;;;;;;29.95;19.50;;;9.30;99.90;;;;;;4897689;29;20591;-71
2021/03/27 02:18:32;;;;;;;33.03;21.92;;;9.30;99.90;;;;;;4897564;29;20261;-70
2021/03/27 02:21:19;;;;;;;30.08;19.90;;;9.30;99.90;;;;;;4897452;29;20246;-70
2021/03/27 02:24:04;;;;;;;29.92;21.02;;;9.30;99.90;;;;;;4897428;29;20179;-70
2021/03/27 02:26:51;;;;;;;35.60;20.08;;;9.40;99.90;;;;;;4897404;29;20225;-71
2021/03/27 02:29:49;;;;;;;30.52;18.45;;;9.40;99.90;;;;;;4897318;29;20684;-69
2021/03/27 02:32:21;;;;;;;32.33;20.88;;;9.50;99.90;;;;;;4897270;29;20209;-71
2021/03/27 02:34:55;;;;;;;32.65;21.42;;;9.50;99.90;;;;;;4897358;29;20274;-71
2021/03/27 02:37:28;;;;;;;27.38;18.23;;;9.50;99.90;;;;;;4896981;29;20739;-69
2021/03/27 02:40:00;;;;;;;31.05;21.77;;;9.40;99.90;;;;;;4897146;29;20208;-69
2021/03/27 02:42:39;;;;;;;30.08;19.42;;;9.50;99.90;;;;;;4897378;29;20265;-69
2021/03/27 02:45:12;;;;;;;32.85;21.52;;;9.60;99.90;;;;;;4897133;29;20178;-69
2021/03/27 02:47:49;;;;;;;32.88;21.15;;;9.80;99.90;;;;;;4897378;29;20728;-70
2021/03/27 02:50:29;;;;;;;37.50;22.33;;;9.80;99.90;;;;;;4899228;29;20548;-70
2021/03/27 02:53:03;;;;;;;35.15;20.23;;;10.00;99.90;;;;;;4901685;29;20688;-70
2021/03/27 02:55:35;;;;;;;32.78;20.50;;;10.10;99.90;;;;;;4901139;29;20260;-70
2021/03/27 02:58:11;;;;;;;27.98;18.80;;;10.00;99.90;;;;;;4884132;29;20206;-69
2021/03/27 03:00:48;;;;;;;25.17;20.67;;;9.90;99.90;;;;;;4900852;29;20237;-70
2021/03/27 03:03:21;;;;;;;32.38;17.20;;;9.90;99.90;;;;;;4900764;29;20324;-70
2021/03/27 03:05:53;;;;;;;31.55;20.35;;;10.00;99.90;;;;;;4900861;29;20673;-71
2021/03/27 03:08:24;;;;;;;29.45;18.75;;;10.10;99.90;;;;;;4901279;29;20193;-72
2021/03/27 03:11:01;;;;;;;24.05;17.83;;;10.10;99.90;;;;;;4901514;29;20175;-72
2021/03/27 03:13:34;;;;;;;29.45;17.75;;;10.20;99.90;;;;;;4900910;29;20683;-71
2021/03/27 03:16:11;;;;;;;30.23;18.98;;;10.00;99.90;;;;;;4900654;29;20218;-72
2021/03/27 03:18:47;;;;;;;26.33;17.02;;;10.00;99.90;;;;;;4900722;29;20257;-72
2021/03/27 03:21:22;;;;;;;32.58;19.88;;;10.20;99.90;;;;;;4900664;29;20210;-73
2021/03/27 03:24:04;;;;;;;29.20;18.20;;;10.20;99.90;;;;;;4900533;29;20193;-72
2021/03/27 03:26:47;;;;;;;29.08;18.25;;;10.20;99.90;;;;;;4900238;29;20223;-72
2021/03/27 03:29:30;;;;;;;25.48;19.38;;;10.40;99.90;;;;;;4900456;29;20178;-72
2021/03/27 03:32:04;;;;;;;31.13;20.23;;;10.30;99.90;;;;;;4900316;29;20252;-72
2021/03/27 03:35:07;;;;;;;36.50;20.75;;;10.20;99.90;;;;;;4900354;29;20265;-72
2021/03/27 03:37:56;;;;;;;26.30;17.13;;;10.20;99.90;;;;;;4900147;29;20217;-72
2021/03/27 03:40:39;;;;;;;24.67;17.08;;;10.00;99.90;;;;;;4900170;29;20202;-71
2021/03/27 03:43:15;;;;;;;29.92;16.75;;;9.80;99.90;;;;;;4900048;29;20193;-71
2021/03/27 03:46:13;;;;;;;29.58;16.70;;;9.90;99.90;;;;;;4900151;29;20215;-72
2021/03/27 03:48:55;;;;;;;27.35;19.00;;;10.00;99.90;;;;;;4899782;29;20213;-72
2021/03/27 03:51:28;;;;;;;29.98;17.95;;;10.00;99.90;;;;;;4900488;29;20186;-72
2021/03/27 03:54:17;;;;;;;22.08;14.65;;;10.00;99.90;;;;;;4900033;29;20583;-71
2021/03/27 03:56:49;;;;;;;24.20;17.08;;;9.90;99.90;;;;;;4899861;29;20218;-72
2021/03/27 03:59:37;;;;;;;22.92;18.27;;;9.80;99.90;;;;;;4900013;29;20226;-71
2021/03/27 04:02:14;;;;;;;33.25;19.85;;;9.80;99.90;;;;;;4899711;29;20182;-72
2021/03/27 04:04:45;;;;;;;25.38;16.52;;;9.80;99.90;;;;;;4899880;29;20193;-71
2021/03/27 04:07:18;;;;;;;26.33;16.48;;;9.90;99.90;;;;;;4900007;29;20274;-72
2021/03/27 04:09:51;;;;;;;26.23;17.65;;;9.90;99.90;;;;;;4899703;29;20182;-72
2021/03/27 04:12:25;;;;;;;23.45;17.80;;;9.80;99.90;;;;;;4899628;29;20186;-71
2021/03/27 04:15:11;;;;;;;26.77;17.60;;;9.80;99.90;;;;;;4899566;29;20186;-72
2021/03/27 04:17:53;;;;;;;23.27;18.33;;;9.70;99.90;;;;;;4955321;23;20243;-69
2021/03/27 04:20:52;;;;;;;24.60;14.60;;;9.60;99.90;;;;;;4916405;29;20596;-69
2021/03/27 04:23:26;;;;;;;34.03;18.67;;;9.60;99.90;;;;;;4916460;29;20216;-69
2021/03/27 04:26:16;;;;;;;29.27;17.65;;;9.60;99.90;;;;;;4915977;29;20181;-69
2021/03/27 04:28:57;;;;;;;24.92;16.92;;;9.60;99.90;;;;;;4887778;29;20209;-68
2021/03/27 04:31:29;;;;;;;26.70;17.05;;;9.80;99.90;;;;;;4916526;29;20536;-69
2021/03/27 04:34:05;;;;;;;30.15;19.10;;;9.70;99.90;;;;;;4916241;29;20201;-68
2021/03/27 04:36:39;;;;;;;37.40;18.08;;;9.80;99.90;;;;;;4915995;29;20586;-69
2021/03/27 04:39:15;;;;;;;23.33;15.82;;;9.80;99.90;;;;;;4916032;29;20193;-69
2021/03/27 04:41:52;;;;;;;22.20;16.60;;;9.80;99.90;;;;;;4915837;29;20205;-69
2021/03/27 04:44:24;;;;;;;23.77;16.65;;;9.60;99.90;;;;;;4915957;29;20201;-69
2021/03/27 04:46:57;;;;;;;29.35;17.88;;;9.50;99.90;;;;;;4915779;29;20220;-69
2021/03/27 04:49:36;;;;;;;29.05;16.02;;;9.60;99.90;;;;;;4915873;29;20237;-68
2021/03/27 04:52:20;;;;;;;26.85;16.48;;;9.50;99.90;;;;;;4915868;29;20194;-69
2021/03/27 04:54:52;;;;;;;22.83;17.08;;;9.50;99.90;;;;;;4916077;29;20212;-68
2021/03/27 04:57:28;;;;;;;24.70;16.02;;;9.60;99.90;;;;;;4915421;29;20227;-70
2021/03/27 05:00:09;;;;;;;22.60;15.38;;;9.50;99.90;;;;;;4915687;29;20257;-70
2021/03/27 05:02:43;;;;;;;20.77;13.80;;;9.50;99.90;;;;;;4898344;29;20210;-69
2021/03/27 05:05:17;;;;;;;25.40;15.15;;;9.60;99.90;;;;;;4915608;29;20246;-69
2021/03/27 05:07:57;;;;;;;20.05;14.55;;;9.60;99.90;;;;;;4914603;29;20220;-69
2021/03/27 05:10:33;;;;;;;21.13;13.10;;;9.70;99.90;;;;;;4915497;29;20562;-70
2021/03/27 05:13:13;;;;;;;26.65;14.25;;;9.80;99.90;;;;;;4914886;29;20657;-69
2021/03/27 05:15:48;;;;;;;21.25;14.63;;;9.80;99.90;;;;;;4915302;29;20193;-69
2021/03/27 05:18:39;;;;;;;22.95;16.38;;;9.80;99.90;;;;;;4915011;29;20291;-69
2021/03/27 05:21:44;;;;;;;22.13;16.77;;;10.00;99.90;;;;;;4915126;29;20193;-69
2021/03/27 05:24:25;;;;;;;30.98;15.13;;;9.90;99.90;;;;;;4915238;29;20204;-68
2021/03/27 05:27:15;;;;;;;22.10;13.85;;;10.10;99.90;;;;;;4915390;29;20248;-69
2021/03/27 05:30:00;;;;;;;20.55;13.70;;;10.20;99.90;;;;;;4915199;29;20197;-69
2021/03/27 05:32:42;;;;;;;24.83;15.63;;;10.40;99.90;;;;;;4915288;29;20174;-69
2021/03/27 05:35:22;;;;;;;18.92;14.23;;;10.50;99.90;;;;;;4915450;29;20202;-69
2021/03/27 05:38:00;;;;;;;21.50;14.70;;;10.50;99.90;;;;;;4914979;29;20256;-69
2021/03/27 05:41:04;;;;;;;24.55;16.33;;;10.60;99.90;;;;;;4915017;29;20311;-69
2021/03/27 05:44:31;;;;;;;24.95;14.23;;;10.60;99.90;;;;;;4915335;29;20193;-68
2021/03/27 05:47:33;;;;;;;19.48;14.20;;;10.70;99.90;;;;;;4856488;29;20226;-69
2021/03/27 05:50:34;;;;;;;20.27;14.07;;;10.80;99.90;;;;;;4914806;29;20670;-68
2021/03/27 05:53:23;;;;;;;24.75;13.43;;;10.80;99.90;;;;;;4897812;29;20201;-68
2021/03/27 05:56:06;;;;;;;15.55;12.40;;;10.80;99.90;;;;;;4914803;29;20200;-68
2021/03/27 05:58:59;;;;;;;22.80;14.73;;;10.90;99.90;;;;;;4914622;29;20281;-69
2021/03/27 06:01:41;;;;;;;20.83;15.07;;;10.80;99.90;;;;;;4914486;29;20217;-70
2021/03/27 06:04:51;;;;;;;19.53;12.33;;;10.80;99.90;;;;;;4914983;29;20918;-69
2021/03/27 06:07:56;;;;;;;19.57;13.73;;;11.00;99.90;;;;;;4912242;29;20742;-69
2021/03/27 06:10:41;;;;;;;16.70;12.77;;;11.20;99.90;;;;;;4915061;29;20426;-68
2021/03/27 06:13:33;;;;;;;18.60;13.23;;;11.30;99.90;;;;;;4915076;29;20889;-69
2021/03/27 06:16:34;;;;;;;21.53;12.83;;;11.20;99.90;;;;;;4914451;29;20460;-70
2021/03/27 06:19:29;;;;;;;16.33;12.82;;;11.20;99.90;;;;;;4893370;29;20445;-68
2021/03/27 06:22:23;;;;;;;17.90;12.77;;;11.30;99.90;;;;;;4914888;29;20666;-69
2021/03/27 06:25:01;;;;;;;13.37;10.90;;;11.50;99.90;;;;;;4914269;29;20763;-69
2021/03/27 06:28:08;;;;;;;19.60;13.53;;;11.60;99.90;;;;;;4915169;29;20503;-69
2021/03/27 06:30:47;;;;;;;19.93;12.13;;;11.60;99.90;;;;;;4915651;29;20958;-70
2021/03/27 06:34:03;;;;;;;18.40;12.70;;;11.50;99.90;;;;;;4915414;29;20424;-70
2021/03/27 06:36:53;;;;;;;15.30;11.77;;;11.60;99.90;;;;;;4857572;29;20439;-70
2021/03/27 06:39:56;;;;;;;17.47;12.40;;;11.80;99.90;;;;;;4911036;29;20980;-69
2021/03/27 06:42:32;;;;;;;15.33;10.97;;;11.90;99.90;;;;;;4914760;29;20430;-69
2021/03/27 06:45:30;;;;;;;17.47;12.20;;;11.90;99.90;;;;;;4915307;29;20792;-69
2021/03/27 06:48:34;;;;;;;19.20;11.60;;;11.90;99.90;;;;;;4915107;29;20440;-69
2021/03/27 06:51:37;;;;;;;18.83;11.30;;;12.20;99.90;;;;;;4898686;29;20471;-69
2021/03/27 06:54:36;;;;;;;18.87;13.67;;;12.50;99.90;;;;;;4915760;29;20417;-70
2021/03/27 06:57:09;;;;;;;16.50;9.90;;;12.90;99.90;;;;;;4913921;29;20866;-69
2021/03/27 07:00:34;;;;;;;12.93;9.90;;;12.90;99.90;;;;;;4915334;29;20431;-70
2021/03/27 07:03:38;;;;;;;15.80;11.33;;;12.90;99.90;;;;;;4914270;29;20435;-70
2021/03/27 07:06:40;;;;;;;15.33;10.23;;;12.90;99.90;;;;;;4914261;29;20435;-69
2021/03/27 07:09:40;;;;;;;15.40;9.97;;;12.90;99.90;;;;;;4913921;29;20491;-69
2021/03/27 07:12:27;;;;;;;13.77;10.03;;;12.70;99.90;;;;;;4890554;29;20419;-69
2021/03/27 07:15:33;;;;;;;14.50;11.37;;;12.50;99.90;;;;;;4914031;29;20870;-68
2021/03/27 07:18:17;;;;;;;15.83;11.60;;;12.40;99.90;;;;;;4913999;29;20465;-68
2021/03/27 07:21:14;;;;;;;14.30;10.30;;;12.20;99.90;;;;;;4913736;29;20440;-69
2021/03/27 07:24:09;;;;;;;22.20;11.37;;;11.90;99.90;;;;;;4913980;29;20480;-69
2021/03/27 07:26:48;;;;;;;17.43;12.20;;;11.70;99.90;;;;;;4913417;29;20424;-71
2021/03/27 07:29:55;;;;;;;11.90;8.87;;;11.30;99.90;;;;;;4913661;29;20516;-71
2021/03/27 07:32:49;;;;;;;16.43;9.60;;;10.90;99.90;;;;;;4913859;29;20957;-71
2021/03/27 07:35:37;;;;;;;12.38;8.55;;;10.50;99.90;;;;;;4885348;29;20510;-71
2021/03/27 07:38:36;;;;;;;15.70;9.10;;;10.30;99.90;;;;;;4909179;29;20201;-70
2021/03/27 07:41:37;;;;;;;15.23;9.95;;;10.00;99.90;;;;;;4931257;29;20239;-70
2021/03/27 07:44:32;;;;;;;17.27;12.20;;;10.20;99.90;;;;;;4936309;29;20642;-71
2021/03/27 07:47:42;;;;;;;16.05;10.30;;;10.50;99.90;;;;;;4936090;29;20630;-71
2021/03/27 07:50:42;;;;;;;15.02;8.52;;;10.60;99.90;;;;;;4935866;29;20268;-70
2021/03/27 07:53:48;;;;;;;13.15;8.55;;;10.60;99.90;;;;;;4935988;29;20188;-70
2021/03/27 07:56:51;;;;;;;9.90;8.88;;;10.80;99.90;;;;;;4912646;29;20228;-70
2021/03/27 07:59:46;;;;;;;10.73;8.95;;;10.60;99.90;;;;;;4934738;29;20193;-70
2021/03/27 08:02:47;;;;;;;15.40;10.48;;;10.50;99.90;;;;;;4935999;29;20217;-70
2021/03/27 08:05:55;;;;;;;14.43;8.00;;;10.30;99.90;;;;;;4925442;29;20298;-69
2021/03/27 08:09:05;;;;;;;11.48;8.60;;;10.30;99.90;;;;;;4918744;29;20238;-71
2021/03/27 08:11:54;;;;;;;13.23;10.13;;;10.30;99.90;;;;;;4936681;29;20185;-69
2021/03/27 08:14:33;;;;;;;6.18;4.70;;;9.70;99.90;;;;;;4936640;29;20609;-69
2021/03/27 08:17:29;;;;;;;6.13;3.28;;;9.20;99.90;;;;;;4936281;29;20232;-69
2021/03/27 08:20:32;;;;;;;4.85;3.40;;;8.90;99.90;;;;;;4936027;29;20690;-69
2021/03/27 08:23:43;;;;;;;4.18;3.75;;;8.60;99.90;;;;;;4936828;29;20241;-69
2021/03/27 08:26:33;;;;;;;2.92;2.30;;;8.80;99.90;;;;;;4936714;29;20213;-68
2021/03/27 08:29:48;;;;;;;2.90;2.35;;;8.90;99.90;;;;;;4937085;29;20197;-71
2021/03/27 08:32:43;;;;;;;2.20;2.00;;;8.80;99.90;;;;;;4918816;29;20232;-70
2021/03/27 08:35:44;;;;;;;2.47;1.98;;;8.50;99.90;;;;;;4935869;29;20196;-69
2021/03/27 08:38:31;;;;;;;2.17;1.38;;;8.40;99.90;;;;;;4904187;29;20210;-70
2021/03/27 08:41:18;;;;;;;1.65;1.40;;;8.10;99.90;;;;;;4936372;29;20527;-69
2021/03/27 08:44:13;;;;;;;2.35;1.50;;;8.20;99.90;;;;;;4936061;29;20191;-69
2021/03/27 08:46:53;;;;;;;3.28;2.25;;;7.90;99.90;;;;;;4912961;29;20216;-69
2021/03/27 08:49:53;;;;;;;1.35;1.23;;;7.70;99.90;;;;;;4936091;29;20187;-70
2021/03/27 08:52:45;;;;;;;1.98;1.60;;;7.60;99.90;;;;;;4936436;29;20192;-70
2021/03/27 08:55:26;;;;;;;3.70;1.30;;;7.40;99.90;;;;;;4936742;29;20220;-70
2021/03/27 08:58:22;;;;;;;2.60;1.20;;;7.60;99.90;;;;;;4935470;29;20727;-70
2021/03/27 09:01:26;;;;;;;1.50;1.10;;;7.60;99.90;;;;;;4936120;29;20204;-69
2021/03/27 09:04:25;;;;;;;2.28;1.30;;;7.20;99.90;;;;;;4935597;29;20196;-70
2021/03/27 09:07:43;;;;;;;4.40;1.73;;;7.30;99.90;;;;;;4935489;29;20228;-69
2021/03/27 09:10:53;;;;;;;1.40;1.23;;;7.30;99.90;;;;;;4876936;29;20395;-69
2021/03/27 09:13:48;;;;;;;2.28;1.17;;;7.40;99.90;;;;;;4935450;29;20185;-70
2021/03/27 09:16:42;;;;;;;1.20;1.00;;;7.20;99.90;;;;;;4934370;29;20223;-69
2021/03/27 09:19:51;;;;;;;2.08;1.55;;;7.30;99.90;;;;;;4935588;29;20721;-70
2021/03/27 09:22:51;;;;;;;4.90;1.42;;;7.20;99.90;;;;;;4904917;29;20649;-70
2021/03/27 09:25:33;;;;;;;1.60;1.50;;;7.30;99.90;;;;;;4915765;29;20193;-70
2021/03/27 09:28:17;;;;;;;1.65;1.30;;;7.40;99.90;;;;;;4916149;29;20212;-70
2021/03/27 09:31:10;;;;;;;1.85;1.50;;;7.40;99.90;;;;;;4916427;29;20224;-70
2021/03/27 09:33:40;;;;;;;2.63;1.90;;;7.80;99.90;;;;;;4915822;29;20289;-70
2021/03/27 09:36:23;;;;;;;3.35;2.75;;;8.10;99.90;;;;;;4915734;29;20548;-70
2021/03/27 09:38:59;;;;;;;2.05;1.40;;;8.40;99.90;;;;;;4915693;29;20685;-70
2021/03/27 09:42:05;;;;;;;2.13;1.60;;;8.10;99.90;;;;;;4915182;29;20197;-71
2021/03/27 09:44:56;;;;;;;2.30;1.90;;;8.10;99.90;;;;;;4915156;29;20201;-71
2021/03/27 09:47:51;;;;;;;1.83;1.55;;;8.00;99.90;;;;;;4914909;29;20730;-70
2021/03/27 09:50:27;;;;;;;2.35;1.50;;;8.10;99.90;;;;;;4915056;29;20201;-71
2021/03/27 09:53:11;;;;;;;2.00;1.33;;;8.40;99.90;;;;;;4915111;29;20181;-69
2021/03/27 09:55:48;;;;;;;2.92;1.42;;;8.70;99.90;;;;;;4914732;29;20217;-69
2021/03/27 09:58:43;;;;;;;1.73;1.40;;;9.10;99.90;;;;;;4915362;29;20196;-70
2021/03/27 10:01:36;;;;;;;2.22;1.48;;;9.60;99.90;;;;;;4916172;29;20217;-70
2021/03/27 10:04:13;;;;;;;2.20;1.50;;;9.40;99.90;;;;;;4913845;29;20215;-69
2021/03/27 10:06:49;;;;;;;2.67;1.65;;;9.40;99.90;;;;;;4915089;29;20268;-72
2021/03/27 10:09:55;;;;;;;1.77;1.15;;;9.30;99.90;;;;;;4897974;29;20208;-71
2021/03/27 10:12:26;;;;;;;2.45;1.40;;;9.20;99.90;;;;;;4906309;29;20197;-70
2021/03/27 10:14:57;;;;;;;1.92;1.35;;;9.30;99.90;;;;;;4924548;29;20296;-70
2021/03/27 10:17:33;;;;;;;2.10;1.90;;;9.40;99.90;;;;;;4955800;23;20231;-67
2021/03/27 10:20:13;;;;;;;2.30;1.27;;;9.10;99.90;;;;;;4952116;29;20180;-67
2021/03/27 10:22:46;;;;;;;1.70;1.60;;;8.90;99.90;;;;;;4952973;29;20536;-69
2021/03/27 10:25:26;;;;;;;3.33;1.85;;;9.30;99.90;;;;;;4953544;29;20268;-69
2021/03/27 10:27:57;;;;;;;2.53;1.92;;;9.60;99.90;;;;;;4953765;29;20704;-72
2021/03/27 10:30:35;;;;;;;5.47;2.30;;;9.90;99.90;;;;;;4953682;29;20185;-71
2021/03/27 10:33:22;;;;;;;3.78;2.08;;;10.10;99.90;;;;;;4953896;29;20560;-70
2021/03/27 10:36:24;;;;;;;3.28;1.95;;;10.00;99.90;;;;;;4953305;29;20212;-69
2021/03/27 10:39:17;;;;;;;3.38;2.20;;;9.90;99.90;;;;;;4953804;29;20214;-69
2021/03/27 10:42:13;;;;;;;2.95;2.50;;;9.90;99.90;;;;;;4953626;29;20208;-70
2021/03/27 10:44:49;;;;;;;3.45;2.75;;;9.70;99.90;;;;;;4936116;29;20185;-69
2021/03/27 10:47:30;;;;;;;2.50;1.77;;;9.60;99.90;;;;;;4916985;29;20224;-70
2021/03/27 10:50:08;;;;;;;2.92;2.00;;;9.90;99.90;;;;;;4933202;29;20180;-67
2021/03/27 10:53:12;;;;;;;3.47;1.58;;;9.80;99.90;;;;;;4933245;29;20211;-68
2021/03/27 10:56:04;;;;;;;4.88;1.65;;;7.90;99.90;;;;;;4933846;29;20185;-69
2021/03/27 10:58:51;;;;;;;2.15;1.10;;;6.40;99.90;;;;;;4933455;29;20260;-68
2021/03/27 11:01:36;;;;;;;1.55;0.90;;;5.90;99.90;;;;;;4933413;29;20192;-70
2021/03/27 11:04:28;;;;;;;2.30;1.55;;;6.40;99.90;;;;;;4917109;29;20212;-69
2021/03/27 11:07:37;;;;;;;4.13;1.35;;;6.90;99.90;;;;;;4934214;29;20267;-70
2021/03/27 11:10:42;;;;;;;2.08;1.23;;;7.70;99.90;;;;;;4933431;29;20236;-70
2021/03/27 11:13:39;;;;;;;4.45;1.83;;;8.40;99.90;;;;;;4936919;29;20188;-69
2021/03/27 11:16:41;;;;;;;1.52;1.13;;;8.20;99.90;;;;;;4936652;29;20228;-70
2021/03/27 11:19:49;;;;;;;8.82;2.28;;;8.20;99.90;;;;;;4956249;29;20176;-69
2021/03/27 11:22:33;;;;;;;2.15;1.70;;;8.40;99.90;;;;;;4956107;29;20691;-70
2021/03/27 11:25:42;;;;;;;3.05;1.85;;;8.40;99.90;;;;;;4956018;29;20200;-68
2021/03/27 11:28:17;;;;;;;3.33;2.45;;;8.60;99.90;;;;;;4955652;29;20198;-70
2021/03/27 11:30:54;;;;;;;4.65;2.13;;;8.80;99.90;;;;;;4956014;28;20664;-69
2021/03/27 11:33:30;;;;;;;4.43;2.03;;;9.00;99.90;;;;;;4956594;29;20661;-70
2021/03/27 11:36:05;;;;;;;2.42;2.22;;;9.50;99.90;;;;;;4957566;29;20180;-69
2021/03/27 11:38:40;;;;;;;5.07;2.85;;;9.60;99.90;;;;;;4956754;29;20180;-70
2021/03/27 11:41:20;;;;;;;3.22;2.30;;;9.70;99.90;;;;;;4958259;29;20204;-69
2021/03/27 11:44:07;;;;;;;3.22;2.70;;;10.00;99.90;;;;;;4960124;29;20740;-70
2021/03/27 11:46:39;;;;;;;11.85;1.90;;;9.80;99.90;;;;;;4959326;29;20231;-68
2021/03/27 11:49:16;;;;;;;5.78;2.20;;;9.50;99.90;;;;;;4958947;29;20176;-70
2021/03/27 11:51:48;;;;;;;2.83;2.20;;;9.90;99.90;;;;;;4955305;29;20592;-69
2021/03/27 11:54:40;;;;;;;2.95;1.77;;;10.00;99.90;;;;;;4955221;29;20180;-69
2021/03/27 11:57:43;;;;;;;2.38;1.85;;;9.80;99.90;;;;;;4955264;29;20208;-69
2021/03/27 12:00:50;;;;;;;2.63;2.00;;;9.70;99.90;;;;;;4948862;29;20250;-69
2021/03/27 12:03:28;;;;;;;3.83;1.98;;;9.80;99.90;;;;;;4955375;28;20191;-69
2021/03/27 12:06:05;;;;;;;2.95;2.10;;;10.00;99.90;;;;;;4957972;29;20279;-68
2021/03/27 12:08:39;;;;;;;3.28;2.10;;;10.10;99.90;;;;;;4958166;29;20467;-70
2021/03/27 12:11:12;;;;;;;15.98;3.10;;;10.20;99.90;;;;;;4956142;29;20180;-68
2021/03/27 12:13:50;;;;;;;5.13;2.35;;;10.40;99.90;;;;;;4956707;29;20183;-68
2021/03/27 12:16:26;;;;;;;5.60;2.08;;;10.60;99.90;;;;;;4956219;29;20218;-69
2021/03/27 12:19:12;;;;;;;3.15;2.40;;;10.50;99.90;;;;;;4919729;29;20202;-70
2021/03/27 12:21:46;;;;;;;3.38;1.92;;;10.40;99.90;;;;;;4936346;29;20321;-68
2021/03/27 12:24:26;;;;;;;3.95;2.50;;;10.60;99.90;;;;;;4935851;29;20204;-69
2021/03/27 12:27:02;;;;;;;2.20;1.80;;;11.10;99.90;;;;;;4918797;29;20248;-69
2021/03/27 12:29:39;;;;;;;5.03;2.53;;;11.50;99.90;;;;;;4918414;29;20248;-68
2021/03/27 12:32:33;;;;;;;5.73;2.90;;;12.00;99.90;;;;;;4918416;29;20495;-69
2021/03/27 12:35:10;;;;;;;4.70;2.80;;;12.70;99.90;;;;;;4928376;29;20493;-69
2021/03/27 12:37:41;;;;;;;3.10;2.53;;;13.20;99.90;;;;;;4935040;29;20444;-68
2021/03/27 12:40:21;;;;;;;3.27;2.53;;;13.40;99.90;;;;;;4935292;29;20431;-70
2021/03/27 12:42:52;;;;;;;4.40;2.90;;;13.10;99.90;;;;;;4935146;29;20492;-69
2021/03/27 12:45:23;;;;;;;5.57;2.50;;;12.70;99.90;;;;;;4934427;29;20847;-69
2021/03/27 12:48:03;;;;;;;2.77;2.47;;;12.40;99.90;;;;;;4934753;29;20476;-69
2021/03/27 12:50:40;;;;;;;3.33;2.80;;;12.00;99.90;;;;;;4934908;29;20979;-68
2021/03/27 12:53:40;;;;;;;3.40;2.70;;;11.80;99.90;;;;;;4934998;29;20753;-69
2021/03/27 12:56:22;;;;;;;2.15;1.60;;;11.60;99.90;;;;;;4943176;29;20216;-69
2021/03/27 12:59:01;;;;;;;4.38;2.97;;;10.90;99.90;;;;;;4954377;29;20255;-71
2021/03/27 13:01:51;;;;;;;3.03;1.55;;;10.70;99.90;;;;;;4956302;29;20235;-71
2021/03/27 13:04:53;;;;;;;3.38;1.98;;;9.90;99.90;;;;;;4956577;29;20220;-70
2021/03/27 13:07:27;;;;;;;3.00;2.15;;;9.40;64.60;;;;;;4955556;29;20222;-71
2021/03/27 13:10:28;;;;;;;5.97;2.20;;;8.50;99.90;;;;;;4955234;29;20601;-71
2021/03/27 13:13:42;;;;;;;2.42;1.45;;;7.60;99.90;;;;;;4934352;29;20203;-71
2021/03/27 13:16:16;;;;;;;4.50;1.45;;;7.20;99.90;;;;;;4955001;29;20275;-72
2021/03/27 13:19:07;;;;;;;1.90;1.20;;;7.20;99.90;;;;;;4973017;28;20604;-71
2021/03/27 13:21:44;;;;;;;2.90;1.52;;;7.50;99.90;;;;;;4975659;28;20195;-71
2021/03/27 13:24:21;;;;;;;3.38;1.42;;;7.80;99.90;;;;;;4975123;28;20258;-72
2021/03/27 13:26:59;;;;;;;5.45;1.88;;;8.20;99.90;;;;;;4975621;28;20278;-71
2021/03/27 13:29:35;;;;;;;4.95;1.50;;;8.40;99.90;;;;;;4975763;28;20183;-72
2021/03/27 13:32:21;;;;;;;4.55;1.25;;;8.70;99.90;;;;;;4979459;28;20234;-71
2021/03/27 13:34:57;;;;;;;2.42;1.35;;;9.00;99.90;;;;;;4979003;28;20206;-71
2021/03/27 13:37:31;;;;;;;2.00;1.10;;;9.10;99.90;;;;;;4980702;28;20249;-71
2021/03/27 13:40:02;;;;;;;2.35;1.05;;;9.20;99.90;;;;;;4978774;28;20176;-70
2021/03/27 13:42:42;;;;;;;3.08;1.58;;;9.30;99.90;;;;;;4974132;28;20204;-71
2021/03/27 13:45:19;;;;;;;3.17;1.30;;;9.10;99.90;;;;;;4973767;28;20558;-71
2021/03/27 13:47:52;;;;;;;4.80;1.27;;;9.30;99.90;;;;;;4971836;28;20226;-71
2021/03/27 13:50:30;;;;;;;1.80;1.25;;;9.40;99.90;;;;;;4973259;28;20175;-71
2021/03/27 13:53:20;;;;;;;1.40;1.23;;;9.60;99.90;;;;;;4973385;28;20199;-70
2021/03/27 13:56:24;;;;;;;2.22;1.00;;;9.30;99.90;;;;;;4972508;28;20270;-70
2021/03/27 13:59:02;;;;;;;2.63;1.30;;;9.10;99.90;;;;;;4972506;28;20267;-70
2021/03/27 14:01:35;;;;;;;2.17;1.17;;;8.70;99.90;;;;;;4972455;28;20214;-70
2021/03/27 14:04:15;;;;;;;1.55;1.10;;;8.80;99.90;;;;;;4972781;28;20193;-71
2021/03/27 14:06:50;;;;;;;1.50;1.10;;;8.70;99.90;;;;;;4972516;28;20215;-70
2021/03/27 14:09:34;;;;;;;4.22;1.50;;;8.60;99.90;;;;;;4971436;28;20191;-71